Dowagiac, Michigan
Current Conditions -  °F | °C
As of 10:14 PM on Monday 20 Oct 2014 (Local Time) from KBEH Reporting Station
Overcast Overcast  
Wind Chill: 51°   Ceiling: 2900
Heat Index: 51°   Visibility: 10mi
Dew Point: 44°   Wind: 7mph
Humidity: 77%   Direction: NA
Pressure: 29.96"   Gusts: NA
Location:  41.98°N, 86.11°W
Report Text: KBEH 210214Z AUTO VRB06KT 10SM SCT021 BKN029 OVC060 11/07 A2996 RMK AO2 T01060067
Loading
Personal Weather Stations






























Interactive Weather Map
Tropical Storm Tracking
New forecast layout! Learn more

10-Day Weather Forecast

Advertisements
Track Severe Weather on mobile